Latest Weather Observations for Marree Airport

IDS60801

Issued at 2:01 pm CDT Sunday 17 February 2019 (issued every 10 minutes, with the page automatically refreshed every 10 minutes)

About weather observations | Map of weather stations | Latest weather observations for SA | Other Formats
Station Details ID: 017126 Name: MARREE AERO Lat: -29.66 Lon: 138.07 Height: 50.0 m
Data from the previous 72 hours. | See also: Recent months at Marree Airport
Date/Time
CDT
Temp
°C
App
Temp
°C
Dew
Point
°C
Rel
Hum
%
Delta-T
°C
Wind Press
QNH
hPa
Press
MSL
hPa
Rain since
9am
mm
Dir  Spd
km/h
Gust
km/h
Spd
kts
Gust
kts
17/02:00pm 39.1 33.7 -1.1 8 20.1 SE 17 26 9 14 1008.6 1008.3 0.0
17/01:30pm 38.6 34.3 -1.5 8 19.9 S 11 26 6 14 1009.2 1008.9 0.0
17/01:00pm 38.2 34.1 -0.2 9 19.3 SE 11 15 6 8 1009.7 1009.3 0.0
17/12:30pm 37.8 34.0 -0.5 9 19.2 SSW 9 15 5 8 1010.3 1009.9 0.0
17/12:00pm 36.9 33.3 0.3 10 18.4 SSE 9 15 5 8 1010.8 1010.4 0.0
17/11:30am 36.3 31.8 -0.2 10 18.2 ESE 13 20 7 11 1011.1 1010.7 0.0
17/11:00am 35.4 30.1 -0.8 10 17.7 SE 17 20 9 11 1011.3 1010.9 0.0
17/10:30am 34.0 28.3 -0.6 11 16.9 SE 19 26 10 14 1011.4 1011.0 0.0
17/10:00am 32.9 26.7 -0.2 12 16.1 SE 22 28 12 15 1011.3 1010.9 0.0
17/09:30am 31.6 25.3 -1.2 12 15.6 SSE 22 26 12 14 1011.3 1010.9 0.0
17/09:00am 30.5 24.8 -1.0 13 14.9 SSE 19 22 10 12 1011.2 1010.8 0.0
17/08:30am 28.8 23.4 -1.3 14 14.0 SSE 17 20 9 11 1011.0 1010.6 0.0
17/08:00am 26.6 21.2 -1.3 16 12.7 SSE 17 20 9 11 1010.9 1010.5 0.0
17/07:30am 25.1 19.3 -1.6 17 12.0 S 19 20 10 11 1010.8 1010.4 0.0
17/07:00am 24.7 18.8 -2.0 17 11.8 S 19 20 10 11 1010.6 1010.2 0.0
17/06:30am 24.5 18.4 -2.1 17 11.8 S 20 20 11 11 1010.5 1010.1 0.0
17/06:00am 24.3 18.5 -1.5 18 11.5 S 19 22 10 12 1010.4 1010.0 0.0
17/05:30am 22.5 17.2 -0.9 21 10.4 S 17 20 9 11 1010.2 1009.8 0.0
17/05:00am 22.4 16.7 -1.0 21 10.4 SSE 19 20 10 11 1010.1 1009.7 0.0
17/04:30am 22.9 17.1 -1.2 20 10.7 SSE 19 19 10 10 1010.0 1009.6 0.0
17/04:00am 23.5 18.2 -0.7 20 10.9 SSE 17 19 9 10 1010.2 1009.8 0.0
17/03:30am 23.8 18.4 -1.2 19 11.2 SSE 17 17 9 9 1010.2 1009.8 0.0
17/03:00am 26.3 21.5 0.1 18 12.2 S 15 19 8 10 1010.4 1010.0 0.0
17/02:30am 27.0 21.4 -0.1 17 12.7 S 19 20 10 11 1010.5 1010.1 0.0
17/02:00am 27.5 21.8 -0.5 16 13.0 S 19 20 10 11 1010.8 1010.4 0.0
17/01:30am 27.9 22.2 -1.1 15 13.4 S 19 20 10 11 1011.1 1010.7 0.0
17/01:00am 28.7 22.9 -1.4 14 13.9 S 19 20 10 11 1011.5 1011.1 0.0
17/12:30am 29.6 23.7 -0.7 14 14.3 S 20 24 11 13 1011.7 1011.3 0.0
17/12:00am 29.5 23.7 -1.8 13 14.5 SSE 19 20 10 11 1011.7 1011.3 0.0
 
Date/Time
CDT
Temp
°C
App
Temp
°C
Dew
Point
°C
Rel
Hum
%
Delta-T
°C
Wind Press
QNH
hPa
Press
MSL
hPa
Rain since
9am
mm
Dir  Spd
km/h
Gust
km/h
Spd
kts
Gust
kts
16/11:30pm 31.1 24.7 -1.6 12 15.3 S 22 28 12 15 1011.6 1011.2 0.0
16/11:00pm 31.5 24.6 -2.5 11 15.7 S 24 30 13 16 1011.7 1011.3 0.0
16/10:30pm 32.0 25.4 -3.4 10 16.2 SSW 22 28 12 15 1011.6 1011.2 0.0
16/10:00pm 32.0 26.3 -3.4 10 16.2 SSW 17 20 9 11 1011.7 1011.3 0.0
16/09:30pm 33.0 26.9 -4.0 9 16.9 SSW 19 24 10 13 1011.5 1011.1 0.0
16/09:00pm 32.5 28.5 -7.7 7 17.2 SSE 6 7 3 4 1011.2 1010.8 0.0
16/08:30pm 34.5 30.4 -6.3 7 18.2 SSE 7 9 4 5 1010.8 1010.4 0.0
16/08:00pm 35.9 31.4 -7.2 6 19.1 SSE 9 11 5 6 1010.7 1010.3 0.0
16/07:30pm 36.9 32.4 -6.5 6 19.6 SE 9 15 5 8 1010.5 1010.1 0.0
16/07:00pm 37.6 33.6 -6.0 6 20.0 SE 7 15 4 8 1010.4 1010.0 0.0
16/06:30pm 37.8 32.4 -8.3 5 20.4 SSE 13 26 7 14 1010.3 1009.9 0.0
16/06:00pm 37.6 32.4 -6.0 6 20.0 S 13 19 7 10 1010.4 1010.0 0.0
16/05:30pm 37.6 32.4 -6.0 6 20.0 SSW 13 22 7 12 1010.5 1010.1 0.0
16/05:00pm 37.7 32.1 -6.0 6 20.0 S 15 26 8 14 1010.8 1010.4 0.0
16/04:30pm 37.6 32.0 -6.0 6 20.0 SSW 15 24 8 13 1011.1 1010.7 0.0
16/04:00pm 37.2 33.0 -4.3 7 19.5 NNW 9 13 5 7 1011.4 1011.0 0.0
16/03:30pm 37.3 32.9 -6.3 6 19.8 SSE 9 17 5 9 1011.9 1011.5 0.0
16/03:00pm 36.8 31.8 -4.6 7 19.3 S 13 26 7 14 1012.3 1011.9 0.0
16/02:30pm 37.4 32.4 -4.2 7 19.6 WNW 13 19 7 10 1012.8 1012.4 0.0
16/02:00pm 36.6 32.9 -3.0 8 18.9 NNW 7 17 4 9 1013.4 1013.0 0.0
16/01:30pm 35.9 31.0 -3.5 8 18.5 SSW 13 20 7 11 1014.0 1013.6 0.0
16/01:00pm 34.9 30.1 -2.6 9 17.8 SE 13 22 7 12 1014.3 1013.9 0.0
16/12:30pm 34.6 29.6 -1.4 10 17.4 SE 15 20 8 11 1015.1 1014.7 0.0
16/12:00pm 34.1 29.8 -1.8 10 17.1 SSE 11 19 6 10 1015.7 1015.3 0.0
16/11:30am 33.5 28.9 -1.0 11 16.6 SSE 13 19 7 10 1016.0 1015.6 0.0
16/11:00am 32.5 27.6 -0.5 12 15.9 SE 15 20 8 11 1016.2 1015.9 0.0
16/10:30am 31.6 26.4 -0.1 13 15.3 SE 17 22 9 12 1016.2 1015.9 0.0
16/10:00am 30.2 24.6 -0.2 14 14.5 SE 19 22 10 12 1016.2 1015.9 0.0
16/09:30am 29.7 23.8 -0.6 14 14.3 SE 20 24 11 13 1016.2 1015.9 0.0
16/09:00am 27.5 22.2 -0.5 16 13.0 SSE 17 20 9 11 1016.2 1015.9 0.0
16/08:30am 24.8 19.8 -1.1 18 11.7 SSE 15 15 8 8 1016.2 1015.9 0.0
16/08:00am 24.0 19.4 -1.0 19 11.2 S 13 15 7 8 1016.0 1015.6 0.0
16/07:30am 20.4 15.6 -2.6 21 9.7 SSE 13 15 7 8 1015.9 1015.5 0.0
16/07:00am 21.4 16.2 -2.5 20 10.2 S 15 17 8 9 1015.8 1015.4 0.0
16/06:30am 22.5 16.7 -1.6 20 10.5 S 19 20 10 11 1015.6 1015.2 0.0
16/06:00am 21.5 15.5 -3.1 19 10.4 S 19 20 10 11 1015.3 1014.9 0.0
16/05:30am 19.7 14.7 -3.9 20 9.6 S 13 15 7 8 1015.4 1015.0 0.0
16/05:00am 19.2 14.2 -4.3 20 9.5 SSE 13 15 7 8 1015.6 1015.2 0.0
16/04:30am 19.8 14.5 -3.8 20 9.6 SSE 15 17 8 9 1015.6 1015.2 0.0
16/04:00am 20.1 15.1 -4.2 19 9.9 SSE 13 15 7 8 1015.5 1015.1 0.0
16/03:30am 20.3 15.6 -4.8 18 10.1 S 11 13 6 7 1015.4 1015.0 0.0
16/03:00am 22.1 16.8 -3.3 18 10.7 S 15 17 8 9 1015.6 1015.2 0.0
16/02:30am 22.9 17.3 -2.6 18 11.0 S 17 19 9 10 1016.0 1015.6 0.0
16/02:00am 23.3 18.1 -3.1 17 11.3 S 15 19 8 10 1016.2 1015.9 0.0
16/01:30am 23.0 18.1 -3.3 17 11.2 SSW 13 15 7 8 1016.5 1016.2 0.0
16/01:00am 22.5 17.2 -3.7 17 11.0 SSW 15 15 8 8 1016.7 1016.4 0.0
16/12:30am 22.6 17.5 -5.3 15 11.4 SSW 13 15 7 8 1016.9 1016.6 0.0
16/12:00am 25.1 21.2 -4.2 14 12.5 S 7 7 4 4 1017.0 1016.7 0.0
 
Date/Time
CDT
Temp
°C
App
Temp
°C
Dew
Point
°C
Rel
Hum
%
Delta-T
°C
Wind Press
QNH
hPa
Press
MSL
hPa
Rain since
9am
mm
Dir  Spd
km/h
Gust
km/h
Spd
kts
Gust
kts
15/11:30pm 26.7 24.3 -3.0 14 13.1 CALM 0 0 0 0 1017.2 1016.9 0.0
15/11:00pm 27.0 22.8 -3.7 13 13.4 SE 9 13 5 7 1017.2 1016.9 0.0
15/10:30pm 28.7 23.0 -3.5 12 14.3 SE 17 20 9 11 1017.0 1016.7 0.0
15/10:00pm 30.1 24.0 -3.6 11 15.2 SE 19 24 10 13 1016.9 1016.6 0.0
15/09:30pm 30.6 23.9 -4.4 10 15.6 SSE 22 35 12 19 1016.7 1016.4 0.0
15/09:00pm 30.2 24.3 -6.1 9 15.6 SSE 17 19 9 10 1016.1 1015.8 0.0
15/08:30pm 31.4 25.9 -5.2 9 16.2 SSE 15 17 8 9 1015.7 1015.3 0.0
15/08:00pm 33.1 27.2 -5.5 8 17.2 SSE 17 20 9 11 1015.4 1015.0 0.0
15/07:30pm 34.2 29.2 -4.7 8 17.7 S 13 19 7 10 1015.1 1014.7 0.0
15/07:00pm 34.2 29.5 -4.7 8 17.7 SE 11 19 6 10 1015.0 1014.6 0.0
15/06:30pm 34.3 28.5 -4.6 8 17.8 SE 17 28 9 15 1015.0 1014.6 0.0
15/06:00pm 34.6 30.3 -4.4 8 17.9 SSE 9 19 5 10 1015.1 1014.7 0.0
15/05:30pm 34.8 29.8 -4.3 8 18.0 ESE 13 20 7 11 1015.2 1014.8 0.0
15/05:00pm 34.6 28.8 -4.4 8 17.9 SSE 17 30 9 16 1015.3 1014.9 0.0
15/04:30pm 34.3 29.3 -4.6 8 17.7 SW 13 22 7 12 1015.6 1015.2 0.0
15/04:00pm 34.2 28.4 -4.7 8 17.7 SSE 17 26 9 14 1015.9 1015.5 0.0
15/03:30pm 35.0 28.9 -4.1 8 18.1 SE 19 28 10 15 1016.4 1016.1 0.0
15/03:00pm 32.7 26.6 -4.3 9 16.8 SE 19 32 10 17 1017.0 1016.7 0.0
15/02:30pm 32.6 27.8 -2.9 10 16.4 SSE 13 22 7 12 1017.5 1017.2 0.0
15/02:00pm 31.9 25.8 -3.5 10 16.2 S 19 26 10 14 1018.2 1017.9 0.0
15/01:30pm 31.8 26.1 -3.5 10 16.1 SSE 17 28 9 15 1018.7 1018.4 0.0
15/01:00pm 31.0 26.7 -1.7 12 15.3 SE 11 19 6 10 1019.2 1018.9 0.0
15/12:30pm 30.7 26.4 -1.9 12 15.1 SE 11 26 6 14 1019.8 1019.5 0.0
15/12:00pm 30.2 24.8 -1.2 13 14.7 SE 17 32 9 17 1020.2 1019.9 0.0
15/11:30am 29.5 24.2 -0.8 14 14.2 ESE 17 28 9 15 1020.5 1020.2 0.0
15/11:00am 29.2 23.0 -0.1 15 13.9 ESE 22 28 12 15 1020.7 1020.4 0.0
15/10:30am 28.3 22.2 0.1 16 13.3 SE 22 32 12 17 1020.8 1020.5 0.0
15/10:00am 28.0 21.4 -0.1 16 13.2 SE 24 32 13 17 1020.8 1020.5 0.0
15/09:30am 26.6 20.9 0.4 18 12.3 SE 20 26 11 14 1020.6 1020.3 0.0
15/09:00am 23.2 17.8 -1.0 20 10.8 SE 17 20 9 11 1020.4 1020.1 0.0
15/08:30am 21.7 16.8 -0.3 23 9.8 SSE 15 19 8 10 1020.2 1019.9 0.0
15/08:00am 19.7 14.4 -0.9 25 8.9 S 17 20 9 11 1019.9 1019.6 0.0
15/07:30am 17.1 11.3 -1.5 28 7.8 S 19 20 10 11 1019.6 1019.3 0.0
15/07:00am 15.9 9.8 -2.1 29 7.3 S 20 24 11 13 1019.3 1019.0 0.0
15/06:30am 15.4 9.5 -2.5 29 7.2 SSE 19 20 10 11 1019.0 1018.7 0.0
15/06:00am 15.3 10.4 -3.1 28 7.3 SE 13 17 7 9 1018.8 1018.5 0.0
15/05:30am 15.5 10.3 -2.9 28 7.3 SE 15 15 8 8 1018.5 1018.2 0.0
15/05:00am 16.7 10.6 -2.4 27 7.8 SSE 20 22 11 12 1018.2 1017.9 0.0
15/04:30am 19.5 14.1 -1.0 25 8.8 S 17 19 9 10 1018.4 1018.1 0.0
15/04:00am 20.0 14.6 -1.2 24 9.2 S 17 19 9 10 1018.3 1018.0 0.0
15/03:30am 20.3 14.9 -1.5 23 9.4 S 17 19 9 10 1018.3 1018.0 0.0
15/03:00am 19.7 14.7 -1.4 24 9.0 S 15 17 8 9 1018.5 1018.2 0.0
15/02:30am 20.0 14.6 -1.7 23 9.3 S 17 19 9 10 1018.7 1018.4 0.0
15/02:00am 20.2 14.8 -1.6 23 9.4 SSW 17 19 9 10 1018.9 1018.6 0.0
15/01:30am 21.2 16.2 -1.3 22 9.8 S 15 17 8 9 1019.0 1018.7 0.0
15/01:00am 22.5 17.8 -1.6 20 10.6 SSE 13 17 7 9 1018.8 1018.5 0.0
15/12:30am 22.0 18.0 -2.0 20 10.4 SE 9 11 5 6 1018.8 1018.5 0.0
15/12:00am 22.6 18.3 -1.5 20 10.6 SE 11 13 6 7 1018.8 1018.5 0.0
 
Date/Time
CDT
Temp
°C
App
Temp
°C
Dew
Point
°C
Rel
Hum
%
Delta-T
°C
Wind Press
QNH
hPa
Press
MSL
hPa
Rain since
9am
mm
Dir  Spd
km/h
Gust
km/h
Spd
kts
Gust
kts
14/11:30pm 22.0 17.6 -2.7 19 10.5 SSE 11 13 6 7 1018.7 1018.4 0.0
14/11:00pm 23.8 19.2 -1.2 19 11.2 ESE 13 15 7 8 1018.6 1018.3 0.0
14/10:30pm 23.8 19.5 -1.9 18 11.3 ESE 11 11 6 6 1018.5 1018.2 0.0
14/10:00pm 25.0 20.3 -1.7 17 11.9 ESE 13 17 7 9 1018.3 1018.0 0.0
14/09:30pm 25.3 20.9 -2.3 16 12.2 SSE 11 11 6 6 1017.8 1017.5 0.0
14/09:00pm 26.6 22.7 -1.3 16 12.7 SE 9 13 5 7 1017.5 1017.2 0.0
14/08:30pm 27.8 23.6 -1.2 15 13.3 SE 11 13 6 7 1017.2 1016.9 0.0
14/08:00pm 29.1 23.7 -1.1 14 14.1 SE 17 22 9 12 1017.0 1016.7 0.0
14/07:30pm 29.7 24.0 -0.6 14 14.3 SSE 19 26 10 14 1016.8 1016.5 0.0
14/07:00pm 29.7 24.4 -0.6 14 14.3 SE 17 30 9 16 1016.7 1016.4 0.0
14/06:30pm 30.4 25.4 -1.1 13 14.8 SE 15 26 8 14 1016.5 1016.2 0.0
14/06:00pm 30.6 25.6 -0.9 13 14.9 SE 15 28 8 15 1016.6 1016.3 0.0
14/05:30pm 30.3 24.5 -1.2 13 14.8 SE 19 28 10 15 1016.7 1016.4 0.0
14/05:00pm 30.4 25.9 -0.1 14 14.6 ESE 13 24 7 13 1016.8 1016.5 0.0
14/04:30pm 30.3 24.7 -0.1 14 14.5 SSE 19 30 10 16 1017.0 1016.7 0.0
14/04:00pm 29.4 24.6 0.1 15 14.0 SE 15 33 8 18 1017.2 1016.9 0.0
14/03:30pm 29.3 24.1 0.0 15 13.9 ESE 17 26 9 14 1017.4 1017.1 0.0
14/03:00pm 28.6 23.1 0.3 16 13.4 ESE 19 30 10 16 1017.8 1017.5 0.0
14/02:30pm 29.0 23.3 0.7 16 13.6 ESE 20 35 11 19 1018.1 1017.8 0.0

Other Formats:

Comma delimited format used in spreadsheet applications
http://www.bom.gov.au/fwo/IDS60801/IDS60801.95480.axf

JavaScript Object Notation format (JSON) in row-major order
http://www.bom.gov.au/fwo/IDS60801/IDS60801.95480.json